Time;durP1;ratioP1;P1;durP2;ratioP2;P2;SDS_P1;SDS_P2;PMS_P1;PMS_P2;Temp;Humidity;BMP_temperature;BMP_pressure;BME280_temperature;BME280_humidity;BME280_pressure;Samples;Min_cycle;Max_cycle;Signal;HPM_P1;HPM_P2
2023/07/19 00:02:20;;;;;;;4.03;3.03;;;;;;;;;;5034989;28;20174;-81
2023/07/19 00:04:45;;;;;;;3.23;2.50;;;;;;;;;;5040985;28;20213;-80
2023/07/19 00:07:11;;;;;;;5.77;3.03;;;;;;;;;;5041591;28;20190;-81
2023/07/19 00:09:36;;;;;;;3.10;2.73;;;;;;;;;;5035654;28;20175;-80
2023/07/19 00:12:02;;;;;;;2.93;2.63;;;;;;;;;;5040755;28;20248;-81
2023/07/19 00:14:27;;;;;;;2.60;2.40;;;;;;;;;;5033926;28;20213;-80
2023/07/19 00:16:52;;;;;;;4.43;3.30;;;;;;;;;;5042937;28;20189;-81
2023/07/19 00:19:17;;;;;;;3.40;2.57;;;;;;;;;;5045547;28;20177;-80
2023/07/19 00:21:42;;;;;;;3.07;2.77;;;;;;;;;;5045201;28;20332;-80
2023/07/19 00:24:08;;;;;;;3.93;3.10;;;;;;;;;;5043369;28;20183;-80
2023/07/19 00:26:33;;;;;;;3.13;2.60;;;;;;;;;;5037990;28;20214;-80
2023/07/19 00:28:58;;;;;;;5.30;3.00;;;;;;;;;;5037339;28;20172;-80
2023/07/19 00:31:23;;;;;;;3.87;2.90;;;;;;;;;;5041298;28;20174;-80
2023/07/19 00:33:49;;;;;;;3.93;3.17;;;;;;;;;;5044339;28;20217;-80
2023/07/19 00:36:14;;;;;;;5.57;2.80;;;;;;;;;;5037307;28;20186;-81
2023/07/19 00:38:39;;;;;;;3.10;2.80;;;;;;;;;;5043743;28;20182;-80
2023/07/19 00:41:04;;;;;;;3.23;2.93;;;;;;;;;;5033417;28;20202;-81
2023/07/19 00:43:30;;;;;;;4.97;3.10;;;;;;;;;;5042892;28;20179;-80
2023/07/19 00:45:55;;;;;;;4.23;2.93;;;;;;;;;;5041261;28;20272;-80
2023/07/19 00:48:21;;;;;;;3.80;3.40;;;;;;;;;;5046912;28;20264;-80
2023/07/19 00:50:47;;;;;;;3.87;2.93;;;;;;;;;;5052532;28;20192;-80
2023/07/19 00:53:16;;;;;;;3.73;2.80;;;;;;;;;;5041338;28;20251;-80
2023/07/19 00:55:43;;;;;;;3.30;2.93;;;;;;;;;;5043258;28;20185;-80
2023/07/19 00:58:08;;;;;;;3.80;2.80;;;;;;;;;;5039019;28;20209;-80
2023/07/19 01:00:33;;;;;;;4.27;2.77;;;;;;;;;;5035395;28;20234;-80
2023/07/19 01:02:59;;;;;;;4.60;3.33;;;;;;;;;;5038138;28;20189;-80
2023/07/19 01:05:24;;;;;;;3.07;2.70;;;;;;;;;;5040025;28;20200;-80
2023/07/19 01:07:50;;;;;;;4.20;2.83;;;;;;;;;;5038264;28;20189;-80
2023/07/19 01:10:15;;;;;;;5.10;3.30;;;;;;;;;;5047514;28;20181;-80
2023/07/19 01:12:40;;;;;;;3.60;3.30;;;;;;;;;;5042111;28;20191;-80
2023/07/19 01:15:08;;;;;;;4.63;3.27;;;;;;;;;;5037054;28;20186;-80
2023/07/19 01:17:34;;;;;;;5.13;3.13;;;;;;;;;;5039396;28;20202;-80
2023/07/19 01:19:59;;;;;;;3.20;2.90;;;;;;;;;;5042315;28;20226;-80
2023/07/19 01:22:27;;;;;;;3.90;3.27;;;;;;;;;;5035345;28;20181;-80
2023/07/19 01:24:52;;;;;;;4.30;3.20;;;;;;;;;;5041575;28;20192;-80
2023/07/19 01:27:18;;;;;;;4.63;3.13;;;;;;;;;;5045946;28;20264;-80
2023/07/19 01:29:43;;;;;;;5.20;3.10;;;;;;;;;;5040775;28;20175;-80
2023/07/19 01:32:08;;;;;;;3.83;3.43;;;;;;;;;;5036653;28;20185;-80
2023/07/19 01:34:33;;;;;;;5.07;3.40;;;;;;;;;;5034124;28;20187;-80
2023/07/19 01:36:58;;;;;;;4.13;3.27;;;;;;;;;;5042906;28;20189;-80
2023/07/19 01:39:24;;;;;;;3.83;3.43;;;;;;;;;;5037324;28;20186;-80
2023/07/19 01:41:49;;;;;;;3.70;3.40;;;;;;;;;;5038481;28;20213;-80
2023/07/19 01:44:15;;;;;;;3.90;3.57;;;;;;;;;;5040024;28;20186;-80
2023/07/19 01:46:40;;;;;;;5.83;4.17;;;;;;;;;;5031806;28;20181;-80
2023/07/19 01:49:05;;;;;;;3.30;3.00;;;;;;;;;;5043062;28;20183;-80
2023/07/19 01:51:30;;;;;;;3.50;3.20;;;;;;;;;;5042020;28;20216;-80
2023/07/19 01:53:56;;;;;;;4.57;3.33;;;;;;;;;;5041212;28;20202;-80
2023/07/19 01:56:21;;;;;;;6.73;3.37;;;;;;;;;;5049817;28;20268;-80
2023/07/19 01:58:46;;;;;;;4.97;3.43;;;;;;;;;;5040052;28;20309;-80
2023/07/19 02:01:11;;;;;;;3.97;3.37;;;;;;;;;;5035261;28;20236;-80
2023/07/19 02:03:36;;;;;;;4.50;3.37;;;;;;;;;;5040824;28;20185;-80
2023/07/19 02:06:02;;;;;;;5.27;3.33;;;;;;;;;;5042046;28;20182;-80
2023/07/19 02:08:27;;;;;;;4.43;3.50;;;;;;;;;;5042520;28;20172;-80
2023/07/19 02:10:54;;;;;;;3.83;3.10;;;;;;;;;;5044710;28;20272;-80
2023/07/19 02:13:19;;;;;;;3.67;3.37;;;;;;;;;;5041623;28;20181;-80
2023/07/19 02:15:44;;;;;;;3.63;3.33;;;;;;;;;;5046774;28;20215;-80
2023/07/19 02:18:09;;;;;;;4.60;3.90;;;;;;;;;;5046139;28;20206;-80
2023/07/19 02:20:35;;;;;;;4.03;3.60;;;;;;;;;;5039227;28;20211;-80
2023/07/19 02:23:00;;;;;;;5.10;3.63;;;;;;;;;;5038105;28;20223;-80
2023/07/19 02:25:25;;;;;;;6.27;3.67;;;;;;;;;;5032496;28;20296;-80
2023/07/19 02:27:50;;;;;;;8.40;3.77;;;;;;;;;;5052261;28;20177;-81
2023/07/19 02:30:16;;;;;;;4.40;3.97;;;;;;;;;;5050707;28;20177;-80
2023/07/19 02:32:41;;;;;;;4.90;3.77;;;;;;;;;;5034868;28;20189;-80
2023/07/19 02:35:06;;;;;;;5.13;3.87;;;;;;;;;;5042608;28;20263;-80
2023/07/19 02:37:31;;;;;;;4.70;3.90;;;;;;;;;;5037582;28;20208;-80
2023/07/19 02:39:57;;;;;;;5.07;3.90;;;;;;;;;;5038419;28;20220;-80
2023/07/19 02:42:22;;;;;;;5.70;4.07;;;;;;;;;;5041574;28;20185;-80
2023/07/19 02:44:48;;;;;;;5.17;3.87;;;;;;;;;;5041572;28;20175;-80
2023/07/19 02:47:13;;;;;;;5.77;4.10;;;;;;;;;;5043291;28;20176;-80
2023/07/19 02:49:39;;;;;;;6.67;4.20;;;;;;;;;;5044835;28;20179;-80
2023/07/19 02:52:05;;;;;;;5.77;3.77;;;;;;;;;;5042866;28;20184;-81
2023/07/19 02:54:30;;;;;;;4.87;4.17;;;;;;;;;;5045323;28;20290;-80
2023/07/19 02:56:55;;;;;;;4.87;4.03;;;;;;;;;;5041339;28;20183;-80
2023/07/19 02:59:20;;;;;;;4.60;3.93;;;;;;;;;;5042137;28;20207;-80
2023/07/19 03:01:45;;;;;;;6.37;4.17;;;;;;;;;;5035477;28;20226;-80
2023/07/19 03:04:12;;;;;;;4.50;3.80;;;;;;;;;;5040115;28;20220;-80
2023/07/19 03:06:37;;;;;;;4.87;3.80;;;;;;;;;;5034411;28;20238;-80
2023/07/19 03:09:03;;;;;;;5.67;4.07;;;;;;;;;;5041031;28;20272;-80
2023/07/19 03:11:28;;;;;;;6.53;3.67;;;;;;;;;;5039455;28;20230;-80
2023/07/19 03:13:53;;;;;;;4.07;3.73;;;;;;;;;;5037393;28;20196;-80
2023/07/19 03:16:18;;;;;;;4.27;3.90;;;;;;;;;;5044149;28;20258;-80
2023/07/19 03:18:43;;;;;;;6.97;4.30;;;;;;;;;;5038341;28;20187;-80
2023/07/19 03:21:08;;;;;;;7.40;4.67;;;;;;;;;;5038492;28;20371;-80
2023/07/19 03:23:34;;;;;;;4.67;4.10;;;;;;;;;;5039182;28;20180;-80
2023/07/19 03:25:59;;;;;;;5.00;3.80;;;;;;;;;;5042216;28;20177;-80
2023/07/19 03:28:25;;;;;;;4.63;3.90;;;;;;;;;;5039488;28;20181;-79
2023/07/19 03:30:54;;;;;;;4.60;4.20;;;;;;;;;;5035609;28;20188;-80
2023/07/19 03:33:20;;;;;;;4.77;4.17;;;;;;;;;;5044231;28;20172;-80
2023/07/19 03:35:45;;;;;;;7.03;4.60;;;;;;;;;;5037981;28;20283;-80
2023/07/19 03:38:10;;;;;;;6.27;4.37;;;;;;;;;;5043527;28;20281;-80
2023/07/19 03:40:35;;;;;;;5.37;4.50;;;;;;;;;;5036563;28;20199;-80
2023/07/19 03:43:01;;;;;;;4.90;4.20;;;;;;;;;;5041155;28;20174;-80
2023/07/19 03:45:28;;;;;;;4.93;4.37;;;;;;;;;;5046204;28;20175;-80
2023/07/19 03:47:53;;;;;;;6.13;3.83;;;;;;;;;;5042749;28;20179;-80
2023/07/19 03:50:18;;;;;;;5.70;4.37;;;;;;;;;;5037595;28;20188;-80
2023/07/19 03:52:43;;;;;;;4.77;3.87;;;;;;;;;;5041878;28;20208;-80
2023/07/19 03:55:09;;;;;;;4.60;4.20;;;;;;;;;;5040928;28;20188;-80
2023/07/19 03:57:34;;;;;;;6.00;4.40;;;;;;;;;;5043863;28;20194;-80
2023/07/19 03:59:59;;;;;;;7.13;4.40;;;;;;;;;;5038271;28;20233;-80
2023/07/19 04:02:25;;;;;;;5.60;4.13;;;;;;;;;;5039724;28;20190;-80
2023/07/19 04:04:50;;;;;;;4.90;4.20;;;;;;;;;;5039575;28;20188;-80
2023/07/19 04:07:15;;;;;;;5.33;4.60;;;;;;;;;;5042134;28;20174;-80
2023/07/19 04:09:41;;;;;;;7.23;4.13;;;;;;;;;;5035766;28;20184;-80
2023/07/19 04:12:06;;;;;;;5.60;4.33;;;;;;;;;;5056358;28;20211;-80
2023/07/19 04:14:32;;;;;;;4.97;3.90;;;;;;;;;;5045306;28;20190;-80
2023/07/19 04:16:57;;;;;;;6.10;4.27;;;;;;;;;;5043102;28;20191;-80
2023/07/19 04:19:22;;;;;;;7.07;3.80;;;;;;;;;;5041609;28;20199;-80
2023/07/19 04:21:48;;;;;;;5.80;4.10;;;;;;;;;;5042101;28;20233;-80
2023/07/19 04:24:13;;;;;;;4.83;4.17;;;;;;;;;;5043615;28;20188;-80
2023/07/19 04:26:38;;;;;;;4.67;4.17;;;;;;;;;;5042584;28;20189;-80
2023/07/19 04:29:04;;;;;;;6.43;4.30;;;;;;;;;;5046192;28;20175;-80
2023/07/19 04:31:29;;;;;;;5.03;3.97;;;;;;;;;;5041345;28;20188;-80
2023/07/19 04:33:54;;;;;;;4.73;4.23;;;;;;;;;;5042708;28;20241;-80
2023/07/19 04:36:19;;;;;;;6.53;4.73;;;;;;;;;;5037174;28;20185;-80
2023/07/19 04:38:45;;;;;;;5.73;4.23;;;;;;;;;;5046874;28;20202;-80
2023/07/19 04:41:10;;;;;;;4.87;4.20;;;;;;;;;;5041776;28;20200;-80
2023/07/19 04:43:35;;;;;;;5.83;4.20;;;;;;;;;;5041338;28;20173;-80
2023/07/19 04:46:00;;;;;;;4.87;4.10;;;;;;;;;;5044253;28;20178;-80
2023/07/19 04:48:26;;;;;;;6.97;3.97;;;;;;;;;;5038263;28;20180;-80
2023/07/19 04:50:52;;;;;;;4.47;3.50;;;;;;;;;;5040394;28;20184;-80
2023/07/19 04:53:17;;;;;;;6.33;4.07;;;;;;;;;;5043893;28;20204;-75
2023/07/19 04:55:42;;;;;;;5.37;3.80;;;;;;;;;;5037826;28;20188;-74
2023/07/19 04:58:07;;;;;;;4.83;4.00;;;;;;;;;;5043879;28;20245;-74
2023/07/19 05:00:33;;;;;;;5.90;3.97;;;;;;;;;;5039443;28;20229;-74
2023/07/19 05:02:58;;;;;;;5.93;4.20;;;;;;;;;;5043373;28;20188;-74
2023/07/19 05:05:23;;;;;;;7.20;3.83;;;;;;;;;;5037962;28;20186;-74
2023/07/19 05:07:49;;;;;;;5.13;3.73;;;;;;;;;;5042015;28;20178;-74
2023/07/19 05:10:14;;;;;;;5.23;4.23;;;;;;;;;;5041658;28;20185;-74
2023/07/19 05:12:39;;;;;;;4.90;4.00;;;;;;;;;;5037031;28;20177;-73
2023/07/19 05:15:05;;;;;;;4.53;4.07;;;;;;;;;;5039909;28;20302;-74
2023/07/19 05:17:30;;;;;;;6.03;3.77;;;;;;;;;;5045244;28;20192;-74
2023/07/19 05:19:55;;;;;;;6.77;3.70;;;;;;;;;;5043328;28;20181;-74
2023/07/19 05:22:21;;;;;;;6.23;4.83;;;;;;;;;;5042848;28;20207;-74
2023/07/19 05:24:46;;;;;;;4.23;3.83;;;;;;;;;;5043992;28;20177;-74
2023/07/19 05:27:15;;;;;;;4.10;3.57;;;;;;;;;;5045083;28;20189;-74
2023/07/19 05:29:40;;;;;;;5.97;4.73;;;;;;;;;;5037699;28;20186;-74
2023/07/19 05:32:06;;;;;;;4.03;3.63;;;;;;;;;;5042249;28;20174;-74
2023/07/19 05:34:32;;;;;;;5.73;3.80;;;;;;;;;;5042164;28;20183;-73
2023/07/19 05:36:57;;;;;;;6.57;4.23;;;;;;;;;;5041479;28;20186;-73
2023/07/19 05:39:22;;;;;;;7.17;3.87;;;;;;;;;;5034798;28;20182;-74
2023/07/19 05:41:47;;;;;;;5.07;3.70;;;;;;;;;;5050344;28;20201;-73
2023/07/19 05:44:12;;;;;;;5.43;4.20;;;;;;;;;;5040739;28;20182;-74
2023/07/19 05:46:38;;;;;;;3.60;3.30;;;;;;;;;;5045402;28;20194;-73
2023/07/19 05:49:03;;;;;;;7.53;4.30;;;;;;;;;;5040384;28;20181;-73
2023/07/19 05:51:28;;;;;;;4.60;4.10;;;;;;;;;;5046909;28;20296;-73
2023/07/19 05:53:54;;;;;;;5.47;4.03;;;;;;;;;;5039862;28;20198;-74
2023/07/19 05:56:19;;;;;;;6.00;3.77;;;;;;;;;;5048385;28;20233;-73
2023/07/19 05:58:45;;;;;;;4.43;3.50;;;;;;;;;;5041935;28;20185;-73
2023/07/19 06:01:11;;;;;;;4.27;3.87;;;;;;;;;;5044766;28;20233;-73
2023/07/19 06:03:36;;;;;;;4.97;4.10;;;;;;;;;;5041845;28;20182;-74
2023/07/19 06:06:05;;;;;;;5.77;4.20;;;;;;;;;;5047863;28;20207;-73
2023/07/19 06:08:31;;;;;;;7.03;3.80;;;;;;;;;;5041799;28;20177;-73
2023/07/19 06:10:56;;;;;;;5.73;3.90;;;;;;;;;;5037754;28;20181;-74
2023/07/19 06:13:21;;;;;;;4.93;4.37;;;;;;;;;;5038746;28;20235;-74
2023/07/19 06:15:47;;;;;;;5.10;3.80;;;;;;;;;;5039931;28;20186;-73
2023/07/19 06:18:13;;;;;;;6.07;4.50;;;;;;;;;;5045705;28;20192;-73
2023/07/19 06:20:38;;;;;;;6.20;4.17;;;;;;;;;;5041897;28;20243;-74
2023/07/19 06:23:03;;;;;;;7.50;3.90;;;;;;;;;;5042172;28;20182;-74
2023/07/19 06:25:29;;;;;;;6.43;3.80;;;;;;;;;;5038319;28;20197;-74
2023/07/19 06:27:54;;;;;;;4.23;3.63;;;;;;;;;;5040953;28;20179;-74
2023/07/19 06:30:19;;;;;;;4.73;3.87;;;;;;;;;;5041384;28;20180;-74
2023/07/19 06:32:44;;;;;;;4.37;3.93;;;;;;;;;;5036466;28;20212;-74
2023/07/19 06:35:10;;;;;;;5.20;3.80;;;;;;;;;;5040032;28;20175;-74
2023/07/19 06:37:35;;;;;;;4.53;3.73;;;;;;;;;;5039197;28;20171;-73
2023/07/19 06:40:03;;;;;;;6.03;3.50;;;;;;;;;;5036971;28;20218;-73
2023/07/19 06:42:30;;;;;;;5.07;3.57;;;;;;;;;;5039648;28;20209;-74
2023/07/19 06:44:56;;;;;;;6.23;3.43;;;;;;;;;;5039228;28;20280;-74
2023/07/19 06:47:21;;;;;;;5.10;3.43;;;;;;;;;;5045512;28;20274;-74
2023/07/19 06:49:47;;;;;;;4.63;3.40;;;;;;;;;;5040834;28;20187;-74
2023/07/19 06:52:12;;;;;;;4.40;2.83;;;;;;;;;;5035674;28;20220;-71
2023/07/19 06:54:37;;;;;;;6.00;3.07;;;;;;;;;;5039218;28;20235;-74
2023/07/19 06:57:03;;;;;;;4.53;3.13;;;;;;;;;;5039754;28;20200;-74
2023/07/19 06:59:28;;;;;;;3.33;3.03;;;;;;;;;;5049630;28;20209;-74
2023/07/19 07:01:54;;;;;;;4.80;3.00;;;;;;;;;;5042700;28;20218;-74
2023/07/19 07:04:19;;;;;;;4.73;2.90;;;;;;;;;;5039779;28;20180;-74
2023/07/19 07:06:44;;;;;;;4.43;3.13;;;;;;;;;;5040516;28;20211;-74
2023/07/19 07:09:09;;;;;;;3.53;2.90;;;;;;;;;;5046154;28;20222;-74
2023/07/19 07:11:35;;;;;;;4.23;2.93;;;;;;;;;;5040188;28;20192;-74
2023/07/19 07:14:00;;;;;;;4.70;3.10;;;;;;;;;;5039863;28;20211;-74
2023/07/19 07:16:25;;;;;;;4.00;3.23;;;;;;;;;;5043797;28;20187;-74
2023/07/19 07:18:50;;;;;;;5.53;3.47;;;;;;;;;;5045656;28;20253;-74
2023/07/19 07:21:16;;;;;;;3.07;2.53;;;;;;;;;;5041337;28;20248;-73
2023/07/19 07:23:41;;;;;;;4.97;3.23;;;;;;;;;;5045721;28;20186;-74
2023/07/19 07:26:06;;;;;;;4.60;2.63;;;;;;;;;;5039746;28;20230;-74
2023/07/19 07:28:32;;;;;;;3.40;2.83;;;;;;;;;;5048402;28;20268;-74
2023/07/19 07:30:57;;;;;;;5.70;2.53;;;;;;;;;;5044641;28;20188;-74
2023/07/19 07:33:22;;;;;;;3.40;2.53;;;;;;;;;;5044407;28;20181;-74
2023/07/19 07:35:47;;;;;;;5.27;2.50;;;;;;;;;;5044603;28;20228;-74
2023/07/19 07:38:13;;;;;;;4.23;2.40;;;;;;;;;;5042267;28;20191;-74
2023/07/19 07:40:38;;;;;;;5.57;2.70;;;;;;;;;;5046305;28;20210;-74
2023/07/19 07:43:03;;;;;;;2.93;2.27;;;;;;;;;;5042811;28;20232;-74
2023/07/19 07:45:28;;;;;;;2.67;2.10;;;;;;;;;;5044359;28;20195;-74
2023/07/19 07:47:54;;;;;;;2.57;2.00;;;;;;;;;;5047566;28;20180;-74
2023/07/19 07:50:19;;;;;;;4.20;2.40;;;;;;;;;;5041908;28;20189;-74
2023/07/19 07:52:45;;;;;;;2.27;2.03;;;;;;;;;;5043632;28;20269;-74
2023/07/19 07:55:10;;;;;;;2.30;2.10;;;;;;;;;;5041846;28;20214;-74
2023/07/19 07:57:37;;;;;;;3.53;2.10;;;;;;;;;;5044238;28;20203;-74
2023/07/19 08:00:06;;;;;;;3.00;2.30;;;;;;;;;;5042630;28;20313;-74
2023/07/19 08:02:32;;;;;;;3.90;2.17;;;;;;;;;;5044076;28;20229;-74
2023/07/19 08:04:58;;;;;;;3.23;2.33;;;;;;;;;;5037965;28;20186;-74
2023/07/19 08:07:25;;;;;;;2.87;2.20;;;;;;;;;;5043207;28;20231;-74
2023/07/19 08:09:51;;;;;;;4.30;2.60;;;;;;;;;;5033439;28;20186;-74
2023/07/19 08:12:16;;;;;;;2.77;2.30;;;;;;;;;;5037288;28;20203;-73
2023/07/19 08:14:41;;;;;;;3.15;1.88;;;;;;;;;;5034189;28;20193;-74
2023/07/19 08:17:06;;;;;;;2.30;2.08;;;;;;;;;;5043556;28;20174;-74
2023/07/19 08:19:32;;;;;;;3.13;2.00;;;;;;;;;;5043865;28;20178;-73
2023/07/19 08:22:02;;;;;;;1.92;1.83;;;;;;;;;;5038628;28;20202;-73
2023/07/19 08:24:27;;;;;;;5.13;2.67;;;;;;;;;;5040601;28;20177;-73
2023/07/19 08:26:52;;;;;;;5.90;2.40;;;;;;;;;;5034749;28;20178;-73
2023/07/19 08:29:17;;;;;;;4.03;2.47;;;;;;;;;;5040001;28;20299;-73
2023/07/19 08:31:42;;;;;;;2.50;1.88;;;;;;;;;;5037096;28;20221;-73
2023/07/19 08:34:08;;;;;;;2.08;1.90;;;;;;;;;;5042905;28;20174;-74
2023/07/19 08:36:33;;;;;;;4.75;2.30;;;;;;;;;;5036566;28;20186;-73
2023/07/19 08:38:58;;;;;;;3.92;2.10;;;;;;;;;;5042708;28;20196;-73
2023/07/19 08:41:25;;;;;;;4.95;2.03;;;;;;;;;;5043416;28;20335;-73
2023/07/19 08:43:51;;;;;;;12.13;2.42;;;;;;;;;;5044379;28;20265;-74
2023/07/19 08:46:16;;;;;;;5.88;2.70;;;;;;;;;;5044369;28;20257;-73
2023/07/19 08:48:44;;;;;;;3.17;1.95;;;;;;;;;;5043487;28;20194;-73
2023/07/19 08:51:09;;;;;;;4.65;2.30;;;;;;;;;;5040320;28;20175;-73
2023/07/19 08:53:34;;;;;;;3.10;2.47;;;;;;;;;;5043361;28;20282;-73
2023/07/19 08:55:59;;;;;;;2.20;1.80;;;;;;;;;;5044279;28;20177;-73
2023/07/19 08:58:25;;;;;;;3.67;1.92;;;;;;;;;;5039744;28;20175;-74
2023/07/19 09:00:50;;;;;;;2.13;2.00;;;;;;;;;;5034823;28;20292;-73
2023/07/19 09:03:19;;;;;;;4.55;2.20;;;;;;;;;;5043456;28;20186;-73
2023/07/19 09:05:46;;;;;;;5.18;1.75;;;;;;;;;;5048766;28;20182;-73
2023/07/19 09:08:11;;;;;;;6.53;2.22;;;;;;;;;;5043669;28;20190;-74
2023/07/19 09:10:37;;;;;;;4.32;2.40;;;;;;;;;;5047061;28;20182;-74
2023/07/19 09:13:05;;;;;;;3.58;2.17;;;;;;;;;;5047658;28;20190;-73
2023/07/19 09:15:32;;;;;;;2.95;1.77;;;;;;;;;;5040161;28;20182;-73
2023/07/19 09:18:00;;;;;;;2.55;1.77;;;;;;;;;;5040517;28;20174;-73
2023/07/19 09:20:26;;;;;;;1.73;1.63;;;;;;;;;;5042394;28;20215;-73
2023/07/19 09:22:51;;;;;;;6.90;2.40;;;;;;;;;;5038813;28;20257;-73
2023/07/19 09:25:16;;;;;;;4.55;2.30;;;;;;;;;;5048668;28;20283;-73
2023/07/19 09:27:43;;;;;;;2.72;1.83;;;;;;;;;;5035072;28;20256;-73
2023/07/19 09:30:09;;;;;;;2.33;1.92;;;;;;;;;;5051676;28;20175;-73
2023/07/19 09:32:34;;;;;;;4.82;2.25;;;;;;;;;;5040670;28;20185;-73
2023/07/19 09:35:01;;;;;;;4.63;2.08;;;;;;;;;;5042243;28;20186;-73
2023/07/19 09:37:26;;;;;;;4.20;2.30;;;;;;;;;;5035042;28;20182;-73
2023/07/19 09:39:52;;;;;;;4.68;2.10;;;;;;;;;;5036078;28;20183;-73
2023/07/19 09:42:18;;;;;;;3.70;2.35;;;;;;;;;;5050753;28;20201;-73
2023/07/19 09:44:45;;;;;;;4.72;2.17;;;;;;;;;;5044927;28;20202;-73
2023/07/19 09:47:10;;;;;;;4.32;2.30;;;;;;;;;;5043754;28;20215;-73
2023/07/19 09:49:36;;;;;;;3.88;2.47;;;;;;;;;;5047184;28;20186;-73
2023/07/19 09:52:02;;;;;;;4.72;2.65;;;;;;;;;;5041159;28;20175;-73
2023/07/19 09:54:30;;;;;;;6.43;2.45;;;;;;;;;;5045589;28;20197;-73
2023/07/19 09:56:55;;;;;;;2.50;2.30;;;;;;;;;;5046124;28;20229;-73
2023/07/19 09:59:24;;;;;;;3.55;2.25;;;;;;;;;;5045906;28;20201;-73
2023/07/19 10:01:49;;;;;;;6.75;2.65;;;;;;;;;;5045017;28;20231;-74
2023/07/19 10:04:21;;;;;;;5.43;2.90;;;;;;;;;;5045277;28;20166;-73
2023/07/19 10:06:46;;;;;;;4.47;1.92;;;;;;;;;;5036486;28;20177;-73
2023/07/19 10:09:38;;;;;;;4.25;2.60;;;;;;;;;;5043747;28;20174;-73
2023/07/19 10:12:12;;;;;;;6.18;2.60;;;;;;;;;;5050200;28;20181;-73
2023/07/19 10:14:38;;;;;;;5.32;2.40;;;;;;;;;;5034478;28;20186;-73
2023/07/19 10:17:05;;;;;;;3.83;2.63;;;;;;;;;;5042507;28;20186;-73
2023/07/19 10:19:35;;;;;;;5.13;2.45;;;;;;;;;;5049168;28;20269;-73
2023/07/19 10:22:02;;;;;;;7.15;2.40;;;;;;;;;;5040991;28;20202;-73
2023/07/19 10:24:28;;;;;;;5.07;2.60;;;;;;;;;;5040160;28;20175;-73
2023/07/19 10:26:53;;;;;;;5.38;2.50;;;;;;;;;;5040538;28;20182;-73
2023/07/19 10:29:18;;;;;;;4.15;2.45;;;;;;;;;;5041244;28;20206;-73
2023/07/19 10:31:43;;;;;;;3.92;2.60;;;;;;;;;;5034441;28;20183;-73
2023/07/19 10:34:09;;;;;;;6.75;2.40;;;;;;;;;;5049678;28;20200;-73
2023/07/19 10:36:37;;;;;;;5.05;2.40;;;;;;;;;;5038628;28;20186;-73
2023/07/19 10:39:02;;;;;;;5.05;2.80;;;;;;;;;;5042126;28;20178;-73
2023/07/19 10:41:28;;;;;;;4.18;2.35;;;;;;;;;;5045653;28;20194;-73
2023/07/19 10:43:57;;;;;;;5.53;2.50;;;;;;;;;;5050443;28;20174;-73
2023/07/19 10:46:23;;;;;;;4.28;2.50;;;;;;;;;;5040833;28;20174;-73
2023/07/19 10:48:49;;;;;;;4.13;2.90;;;;;;;;;;5046125;28;20185;-73
2023/07/19 10:51:14;;;;;;;5.00;2.42;;;;;;;;;;5043184;28;20178;-73
2023/07/19 10:53:41;;;;;;;4.55;2.88;;;;;;;;;;5042197;28;20210;-73
2023/07/19 10:56:06;;;;;;;8.43;2.45;;;;;;;;;;5042854;28;20231;-73
2023/07/19 10:58:31;;;;;;;3.45;2.50;;;;;;;;;;5041040;28;20175;-73
2023/07/19 11:00:57;;;;;;;5.28;2.90;;;;;;;;;;5037374;28;20230;-73
2023/07/19 11:03:24;;;;;;;3.70;2.65;;;;;;;;;;5043863;28;20236;-73
2023/07/19 11:05:50;;;;;;;6.97;2.85;;;;;;;;;;5044627;28;20186;-73
2023/07/19 11:08:22;;;;;;;3.35;2.70;;;;;;;;;;5041495;28;20174;-73
2023/07/19 11:10:48;;;;;;;5.95;3.40;;;;;;;;;;5045818;28;20275;-73
2023/07/19 11:13:13;;;;;;;10.43;3.33;;;;;;;;;;5044163;28;20177;-73
2023/07/19 11:15:46;;;;;;;4.65;2.80;;;;;;;;;;5039339;28;20175;-73
2023/07/19 11:18:11;;;;;;;5.95;3.30;;;;;;;;;;5041871;28;20188;-73
2023/07/19 11:20:36;;;;;;;4.43;3.20;;;;;;;;;;5047526;28;20197;-73
2023/07/19 11:23:05;;;;;;;5.65;2.90;;;;;;;;;;5045606;28;20233;-73
2023/07/19 11:25:30;;;;;;;3.92;3.30;;;;;;;;;;5043372;28;20178;-73
2023/07/19 11:27:55;;;;;;;3.40;2.95;;;;;;;;;;5040588;28;20281;-73
2023/07/19 11:30:23;;;;;;;2.72;2.53;;;;;;;;;;5043944;28;20177;-73
2023/07/19 11:33:00;;;;;;;4.32;2.80;;;;;;;;;;5045295;28;20174;-73
2023/07/19 11:35:29;;;;;;;8.65;3.00;;;;;;;;;;5035427;28;20181;-73
2023/07/19 11:37:55;;;;;;;4.55;2.78;;;;;;;;;;5047846;28;20173;-73
2023/07/19 11:40:22;;;;;;;4.60;2.90;;;;;;;;;;5048638;28;20261;-73
2023/07/19 11:42:49;;;;;;;6.45;2.58;;;;;;;;;;5045746;28;20222;-73
2023/07/19 11:45:16;;;;;;;3.00;2.53;;;;;;;;;;5037380;28;20178;-73
2023/07/19 11:47:42;;;;;;;8.35;3.50;;;;;;;;;;5041525;28;20268;-73
2023/07/19 11:50:08;;;;;;;2.90;2.35;;;;;;;;;;5038619;28;20235;-73
2023/07/19 11:52:51;;;;;;;4.00;2.85;;;;;;;;;;5037277;28;20233;-73
2023/07/19 11:55:18;;;;;;;5.15;2.40;;;;;;;;;;5041830;28;20205;-73
2023/07/19 11:57:44;;;;;;;5.90;3.13;;;;;;;;;;5043123;28;20200;-71
2023/07/19 12:00:10;;;;;;;6.15;3.30;;;;;;;;;;5037443;28;20225;-73
2023/07/19 12:02:36;;;;;;;5.90;2.75;;;;;;;;;;5043697;28;20209;-73
2023/07/19 12:05:03;;;;;;;3.67;2.80;;;;;;;;;;5040267;28;20233;-73
2023/07/19 12:07:28;;;;;;;4.65;3.50;;;;;;;;;;5041729;28;20181;-73
2023/07/19 12:09:55;;;;;;;6.65;3.35;;;;;;;;;;5044854;28;20174;-73
2023/07/19 12:12:20;;;;;;;4.95;2.92;;;;;;;;;;5045234;28;20268;-73
2023/07/19 12:14:45;;;;;;;4.38;3.10;;;;;;;;;;5038089;28;20269;-73
2023/07/19 12:17:10;;;;;;;5.10;3.72;;;;;;;;;;5041624;28;20198;-73
2023/07/19 12:19:36;;;;;;;3.83;3.38;;;;;;;;;;5038245;28;20183;-73
2023/07/19 12:22:04;;;;;;;7.15;3.00;;;;;;;;;;5046218;28;20261;-73
2023/07/19 12:24:29;;;;;;;6.22;3.35;;;;;;;;;;5038232;28;20205;-73
2023/07/19 12:26:55;;;;;;;6.75;3.80;;;;;;;;;;5043215;28;20206;-73
2023/07/19 12:29:20;;;;;;;8.23;3.70;;;;;;;;;;5043006;28;20287;-73
2023/07/19 12:31:45;;;;;;;8.90;3.95;;;;;;;;;;5035909;28;20485;-72
2023/07/19 12:34:10;;;;;;;11.68;4.53;;;;;;;;;;5035196;28;20201;-73
2023/07/19 12:36:36;;;;;;;7.65;3.97;;;;;;;;;;5036389;28;20185;-73
2023/07/19 12:39:01;;;;;;;8.30;5.25;;;;;;;;;;5040072;28;20178;-73
2023/07/19 12:41:28;;;;;;;5.90;4.38;;;;;;;;;;5046932;28;20198;-73
2023/07/19 12:43:54;;;;;;;4.47;4.00;;;;;;;;;;5045742;28;20224;-73
2023/07/19 12:46:21;;;;;;;5.43;4.18;;;;;;;;;;5044812;28;20262;-73
2023/07/19 12:48:48;;;;;;;4.32;3.92;;;;;;;;;;5044894;28;20178;-73
2023/07/19 12:51:13;;;;;;;5.22;4.07;;;;;;;;;;5039897;28;20179;-74
2023/07/19 12:53:38;;;;;;;6.28;4.28;;;;;;;;;;5044482;28;20210;-74
2023/07/19 12:56:04;;;;;;;5.10;3.85;;;;;;;;;;5049112;28;20174;-74
2023/07/19 12:58:30;;;;;;;6.32;3.70;;;;;;;;;;5034106;28;20178;-74
2023/07/19 13:00:55;;;;;;;6.85;3.85;;;;;;;;;;5042508;28;20237;-74
2023/07/19 13:03:20;;;;;;;4.38;3.70;;;;;;;;;;5038730;28;20167;-74
2023/07/19 13:05:46;;;;;;;4.18;3.85;;;;;;;;;;5043688;28;20182;-74
2023/07/19 13:08:12;;;;;;;7.78;4.20;;;;;;;;;;5044276;28;20174;-74
2023/07/19 13:10:37;;;;;;;5.55;3.90;;;;;;;;;;5045185;28;20201;-74
2023/07/19 13:13:03;;;;;;;4.28;3.88;;;;;;;;;;5039441;28;20262;-74
2023/07/19 13:15:28;;;;;;;8.10;3.90;;;;;;;;;;5048373;28;20163;-74
2023/07/19 13:17:53;;;;;;;6.22;4.35;;;;;;;;;;5041545;28;20193;-75
2023/07/19 13:20:18;;;;;;;7.10;3.65;;;;;;;;;;5051036;28;20174;-74
2023/07/19 13:22:44;;;;;;;6.30;3.58;;;;;;;;;;5046055;28;20206;-74
2023/07/19 13:25:09;;;;;;;6.15;4.00;;;;;;;;;;5049519;28;20235;-74
2023/07/19 13:27:35;;;;;;;4.72;4.05;;;;;;;;;;5045402;28;20210;-74
2023/07/19 13:30:00;;;;;;;4.47;3.75;;;;;;;;;;5048695;28;20177;-75
2023/07/19 13:32:25;;;;;;;4.03;3.63;;;;;;;;;;5044878;28;20178;-74
2023/07/19 13:34:51;;;;;;;6.80;4.00;;;;;;;;;;5044267;28;20217;-74
2023/07/19 13:37:16;;;;;;;9.27;3.80;;;;;;;;;;5038748;28;20182;-74
2023/07/19 13:39:41;;;;;;;7.90;4.22;;;;;;;;;;5039526;28;20183;-74
2023/07/19 13:42:06;;;;;;;7.13;3.60;;;;;;;;;;5042566;28;20305;-74
2023/07/19 13:44:31;;;;;;;4.80;3.63;;;;;;;;;;5035790;28;20183;-74
2023/07/19 13:46:58;;;;;;;5.15;3.80;;;;;;;;;;5040167;28;20178;-74
2023/07/19 13:49:23;;;;;;;5.50;3.28;;;;;;;;;;5039616;28;20214;-74
2023/07/19 13:51:48;;;;;;;6.90;3.55;;;;;;;;;;5041586;28;20210;-74
2023/07/19 13:54:13;;;;;;;7.05;3.90;;;;;;;;;;5044210;28;20194;-74
2023/07/19 13:56:39;;;;;;;6.28;3.70;;;;;;;;;;5039325;28;20261;-74
2023/07/19 13:59:04;;;;;;;6.28;3.30;;;;;;;;;;5037599;28;20185;-74
2023/07/19 14:01:29;;;;;;;5.63;3.30;;;;;;;;;;5041366;28;20225;-74
2023/07/19 14:03:54;;;;;;;4.93;2.92;;;;;;;;;;5037704;28;20175;-74
2023/07/19 14:06:19;;;;;;;7.70;4.20;;;;;;;;;;5037756;28;20272;-74
2023/07/19 14:08:45;;;;;;;6.20;3.93;;;;;;;;;;5043696;28;20225;-74
2023/07/19 14:11:10;;;;;;;7.88;3.70;;;;;;;;;;5038967;28;20420;-74
2023/07/19 14:13:35;;;;;;;5.65;4.00;;;;;;;;;;5036484;28;20205;-74
2023/07/19 14:16:00;;;;;;;6.78;3.05;;;;;;;;;;5036179;28;20192;-74
2023/07/19 14:18:26;;;;;;;6.03;3.35;;;;;;;;;;5036470;28;20194;-74
2023/07/19 14:20:51;;;;;;;9.63;3.92;;;;;;;;;;5036723;28;20203;-74
2023/07/19 14:23:17;;;;;;;5.30;3.22;;;;;;;;;;5043047;28;20177;-74
2023/07/19 14:25:42;;;;;;;7.35;3.40;;;;;;;;;;5043050;28;20182;-74
2023/07/19 14:28:07;;;;;;;6.22;3.40;;;;;;;;;;5044470;28;20182;-74
2023/07/19 14:30:33;;;;;;;6.90;3.67;;;;;;;;;;5036677;28;20225;-74
2023/07/19 14:32:58;;;;;;;4.65;3.83;;;;;;;;;;5030927;28;20285;-74
2023/07/19 14:35:23;;;;;;;6.10;3.50;;;;;;;;;;5040576;28;20227;-74